Quitilipi, Argentina
Current Conditions -  °F | °C
As of 12:00 AM on Monday 20 Oct 2014 (Local Time) from SARE Reporting Station
Clear Clear  
Wind Chill: 68°   Ceiling: Unl
Heat Index: 68°   Visibility: 6mi
Dew Point: 66°   Wind: 2mph
Humidity: 94%   Direction: 180°S
Pressure: 30"   Gusts: NA
Location:  26.87°S, 60.22°W
Report Text: SARE 200300Z 18002KT CAVOK 20/19 Q1016
Loading
Personal Weather Stations






























Interactive Weather Map
Tropical Storm Tracking
New forecast layout! Learn more

10-Day Weather Forecast

Advertisements
Track Severe Weather on mobile